sensor_id;sensor_type;location;lat;lon;timestamp;P1;durP1;ratioP1;P2;durP2;ratioP2
46377;SDS011;32083;47.360;9.650;2023-06-24T04:02:30;10.35;;;9.32;;
46377;SDS011;32083;47.360;9.650;2023-06-24T04:04:56;11.20;;;10.10;;
46377;SDS011;32083;47.360;9.650;2023-06-24T04:07:23;10.48;;;9.35;;
46377;SDS011;32083;47.360;9.650;2023-06-24T04:09:55;10.40;;;9.45;;
46377;SDS011;32083;47.360;9.650;2023-06-24T04:12:21;12.77;;;9.38;;
46377;SDS011;32083;47.360;9.650;2023-06-24T04:14:47;10.45;;;9.40;;
46377;SDS011;32083;47.360;9.650;2023-06-24T04:17:13;10.40;;;9.35;;
46377;SDS011;32083;47.360;9.650;2023-06-24T04:19:39;10.38;;;8.85;;
46377;SDS011;32083;47.360;9.650;2023-06-24T04:22:06;10.63;;;9.52;;
46377;SDS011;32083;47.360;9.650;2023-06-24T04:24:32;11.18;;;9.98;;
46377;SDS011;32083;47.360;9.650;2023-06-24T04:26:58;8.98;;;8.18;;
46377;SDS011;32083;47.360;9.650;2023-06-24T04:29:24;12.15;;;11.00;;
46377;SDS011;32083;47.360;9.650;2023-06-24T04:31:50;11.68;;;10.18;;
46377;SDS011;32083;47.360;9.650;2023-06-24T04:34:16;12.45;;;9.55;;
46377;SDS011;32083;47.360;9.650;2023-06-24T04:36:42;10.38;;;9.38;;
46377;SDS011;32083;47.360;9.650;2023-06-24T04:39:07;12.70;;;11.50;;
46377;SDS011;32083;47.360;9.650;2023-06-24T04:41:33;13.10;;;11.90;;
46377;SDS011;32083;47.360;9.650;2023-06-24T04:43:59;12.38;;;11.13;;
46377;SDS011;32083;47.360;9.650;2023-06-24T04:46:25;11.95;;;10.90;;
46377;SDS011;32083;47.360;9.650;2023-06-24T04:48:51;12.63;;;10.82;;
46377;SDS011;32083;47.360;9.650;2023-06-24T04:51:17;11.75;;;10.40;;
46377;SDS011;32083;47.360;9.650;2023-06-24T04:53:43;11.80;;;9.90;;
46377;SDS011;32083;47.360;9.650;2023-06-24T04:56:09;10.52;;;9.52;;
46377;SDS011;32083;47.360;9.650;2023-06-24T04:58:34;15.20;;;12.45;;
46377;SDS011;32083;47.360;9.650;2023-06-24T05:01:00;13.63;;;12.20;;
46377;SDS011;32083;47.360;9.650;2023-06-24T05:03:27;13.02;;;11.82;;
46377;SDS011;32083;47.360;9.650;2023-06-24T05:05:53;13.38;;;11.55;;
46377;SDS011;32083;47.360;9.650;2023-06-24T05:08:19;13.57;;;12.27;;
46377;SDS011;32083;47.360;9.650;2023-06-24T05:10:45;14.43;;;12.40;;
46377;SDS011;32083;47.360;9.650;2023-06-24T05:13:10;14.30;;;11.80;;
46377;SDS011;32083;47.360;9.650;2023-06-24T05:15:37;12.30;;;11.20;;
46377;SDS011;32083;47.360;9.650;2023-06-24T05:18:03;11.77;;;10.70;;
46377;SDS011;32083;47.360;9.650;2023-06-24T05:20:29;12.85;;;11.55;;
46377;SDS011;32083;47.360;9.650;2023-06-24T05:22:54;13.38;;;12.07;;
46377;SDS011;32083;47.360;9.650;2023-06-24T05:25:20;15.35;;;13.68;;
46377;SDS011;32083;47.360;9.650;2023-06-24T05:27:47;12.60;;;10.93;;
46377;SDS011;32083;47.360;9.650;2023-06-24T05:30:13;13.30;;;11.10;;
46377;SDS011;32083;47.360;9.650;2023-06-24T05:32:39;12.85;;;11.50;;
46377;SDS011;32083;47.360;9.650;2023-06-24T05:35:06;12.05;;;10.95;;
46377;SDS011;32083;47.360;9.650;2023-06-24T05:37:32;13.77;;;12.20;;
46377;SDS011;32083;47.360;9.650;2023-06-24T05:39:58;12.73;;;10.95;;
46377;SDS011;32083;47.360;9.650;2023-06-24T05:42:26;11.85;;;10.05;;
46377;SDS011;32083;47.360;9.650;2023-06-24T05:44:52;12.40;;;10.93;;
46377;SDS011;32083;47.360;9.650;2023-06-24T05:47:19;13.43;;;11.82;;
46377;SDS011;32083;47.360;9.650;2023-06-24T05:49:45;12.63;;;11.43;;
46377;SDS011;32083;47.360;9.650;2023-06-24T05:52:14;11.88;;;10.57;;
46377;SDS011;32083;47.360;9.650;2023-06-24T05:54:39;12.15;;;11.02;;
46377;SDS011;32083;47.360;9.650;2023-06-24T05:57:05;11.77;;;10.45;;
46377;SDS011;32083;47.360;9.650;2023-06-24T05:59:32;12.52;;;10.75;;
46377;SDS011;32083;47.360;9.650;2023-06-24T06:01:58;11.30;;;10.15;;
46377;SDS011;32083;47.360;9.650;2023-06-24T06:04:26;13.10;;;11.45;;
46377;SDS011;32083;47.360;9.650;2023-06-24T06:06:53;12.50;;;11.20;;
46377;SDS011;32083;47.360;9.650;2023-06-24T06:09:19;10.27;;;9.32;;
46377;SDS011;32083;47.360;9.650;2023-06-24T06:11:47;11.80;;;10.55;;
46377;SDS011;32083;47.360;9.650;2023-06-24T06:14:13;12.27;;;10.55;;
46377;SDS011;32083;47.360;9.650;2023-06-24T06:16:39;10.73;;;9.68;;
46377;SDS011;32083;47.360;9.650;2023-06-24T06:19:05;10.77;;;9.88;;
46377;SDS011;32083;47.360;9.650;2023-06-24T06:21:31;10.65;;;9.63;;
46377;SDS011;32083;47.360;9.650;2023-06-24T06:23:58;11.00;;;9.90;;
46377;SDS011;32083;47.360;9.650;2023-06-24T06:26:24;11.45;;;10.48;;
46377;SDS011;32083;47.360;9.650;2023-06-24T06:28:50;10.60;;;9.65;;
46377;SDS011;32083;47.360;9.650;2023-06-24T06:31:18;12.73;;;10.35;;
46377;SDS011;32083;47.360;9.650;2023-06-24T06:33:44;10.57;;;9.57;;
46377;SDS011;32083;47.360;9.650;2023-06-24T06:36:10;11.18;;;10.07;;
46377;SDS011;32083;47.360;9.650;2023-06-24T06:38:36;10.98;;;10.05;;
46377;SDS011;32083;47.360;9.650;2023-06-24T06:41:02;10.40;;;9.35;;
46377;SDS011;32083;47.360;9.650;2023-06-24T06:43:28;12.95;;;11.00;;
46377;SDS011;32083;47.360;9.650;2023-06-24T06:45:54;10.05;;;9.05;;
46377;SDS011;32083;47.360;9.650;2023-06-24T06:48:21;11.63;;;10.48;;
46377;SDS011;32083;47.360;9.650;2023-06-24T06:50:47;10.55;;;9.55;;
46377;SDS011;32083;47.360;9.650;2023-06-24T06:53:12;13.30;;;10.45;;
46377;SDS011;32083;47.360;9.650;2023-06-24T06:55:38;11.77;;;10.48;;
46377;SDS011;32083;47.360;9.650;2023-06-24T06:58:05;11.48;;;10.48;;
46377;SDS011;32083;47.360;9.650;2023-06-24T07:00:31;10.90;;;9.63;;
46377;SDS011;32083;47.360;9.650;2023-06-24T07:02:57;10.82;;;9.82;;
46377;SDS011;32083;47.360;9.650;2023-06-24T07:05:22;9.73;;;8.75;;
46377;SDS011;32083;47.360;9.650;2023-06-24T07:07:48;10.25;;;9.23;;
46377;SDS011;32083;47.360;9.650;2023-06-24T07:10:15;9.90;;;9.07;;
46377;SDS011;32083;47.360;9.650;2023-06-24T07:12:42;9.73;;;8.82;;
46377;SDS011;32083;47.360;9.650;2023-06-24T07:15:08;9.38;;;8.40;;
46377;SDS011;32083;47.360;9.650;2023-06-24T07:17:35;9.52;;;7.40;;
46377;SDS011;32083;47.360;9.650;2023-06-24T07:20:01;9.57;;;7.72;;
46377;SDS011;32083;47.360;9.650;2023-06-24T07:22:27;8.02;;;7.07;;
46377;SDS011;32083;47.360;9.650;2023-06-24T07:24:55;7.43;;;6.70;;
46377;SDS011;32083;47.360;9.650;2023-06-24T07:27:22;8.05;;;7.35;;
46377;SDS011;32083;47.360;9.650;2023-06-24T07:29:48;8.27;;;7.55;;
46377;SDS011;32083;47.360;9.650;2023-06-24T07:32:14;8.05;;;6.57;;
46377;SDS011;32083;47.360;9.650;2023-06-24T07:34:40;8.80;;;7.93;;
46377;SDS011;32083;47.360;9.650;2023-06-24T07:37:06;8.48;;;7.68;;
46377;SDS011;32083;47.360;9.650;2023-06-24T07:39:32;8.05;;;7.35;;
46377;SDS011;32083;47.360;9.650;2023-06-24T07:41:58;7.82;;;7.13;;
46377;SDS011;32083;47.360;9.650;2023-06-24T07:44:24;7.82;;;7.03;;
46377;SDS011;32083;47.360;9.650;2023-06-24T07:46:50;7.72;;;6.93;;
46377;SDS011;32083;47.360;9.650;2023-06-24T07:49:16;7.82;;;7.13;;
46377;SDS011;32083;47.360;9.650;2023-06-24T07:51:43;7.70;;;7.00;;
46377;SDS011;32083;47.360;9.650;2023-06-24T07:54:10;8.48;;;6.93;;
46377;SDS011;32083;47.360;9.650;2023-06-24T07:56:36;7.70;;;6.35;;
46377;SDS011;32083;47.360;9.650;2023-06-24T07:59:02;7.60;;;6.80;;
46377;SDS011;32083;47.360;9.650;2023-06-24T08:01:28;6.75;;;6.05;;
46377;SDS011;32083;47.360;9.650;2023-06-24T08:03:54;7.85;;;6.55;;
46377;SDS011;32083;47.360;9.650;2023-06-24T08:06:20;6.88;;;6.22;;
46377;SDS011;32083;47.360;9.650;2023-06-24T08:08:46;6.80;;;6.20;;
46377;SDS011;32083;47.360;9.650;2023-06-24T08:11:12;8.32;;;7.53;;
46377;SDS011;32083;47.360;9.650;2023-06-24T08:13:38;7.72;;;6.82;;
46377;SDS011;32083;47.360;9.650;2023-06-24T08:16:05;7.43;;;6.43;;
46377;SDS011;32083;47.360;9.650;2023-06-24T08:18:31;7.97;;;7.28;;
46377;SDS011;32083;47.360;9.650;2023-06-24T08:20:58;7.15;;;6.45;;
46377;SDS011;32083;47.360;9.650;2023-06-24T08:23:24;7.57;;;6.88;;
46377;SDS011;32083;47.360;9.650;2023-06-24T08:25:50;10.00;;;7.53;;
46377;SDS011;32083;47.360;9.650;2023-06-24T08:28:16;7.15;;;6.55;;
46377;SDS011;32083;47.360;9.650;2023-06-24T08:30:42;8.05;;;7.25;;
46377;SDS011;32083;47.360;9.650;2023-06-24T08:33:08;9.02;;;7.07;;
46377;SDS011;32083;47.360;9.650;2023-06-24T08:35:33;8.07;;;7.30;;
46377;SDS011;32083;47.360;9.650;2023-06-24T08:37:59;8.40;;;7.60;;
46377;SDS011;32083;47.360;9.650;2023-06-24T08:40:26;7.82;;;7.00;;
46377;SDS011;32083;47.360;9.650;2023-06-24T08:42:54;8.48;;;7.65;;
46377;SDS011;32083;47.360;9.650;2023-06-24T08:45:20;7.20;;;6.60;;
46377;SDS011;32083;47.360;9.650;2023-06-24T08:47:47;8.45;;;7.03;;
46377;SDS011;32083;47.360;9.650;2023-06-24T08:50:15;8.52;;;7.72;;
46377;SDS011;32083;47.360;9.650;2023-06-24T08:52:44;7.60;;;6.90;;
46377;SDS011;32083;47.360;9.650;2023-06-24T08:55:16;7.50;;;6.80;;
46377;SDS011;32083;47.360;9.650;2023-06-24T08:57:45;9.07;;;7.75;;
46377;SDS011;32083;47.360;9.650;2023-06-24T09:00:12;9.07;;;7.57;;
46377;SDS011;32083;47.360;9.650;2023-06-24T09:02:38;7.63;;;6.55;;
46377;SDS011;32083;47.360;9.650;2023-06-24T09:05:05;8.00;;;7.15;;
46377;SDS011;32083;47.360;9.650;2023-06-24T09:07:31;9.88;;;8.18;;
46377;SDS011;32083;47.360;9.650;2023-06-24T09:09:57;10.15;;;9.23;;
46377;SDS011;32083;47.360;9.650;2023-06-24T09:12:25;8.40;;;7.68;;
46377;SDS011;32083;47.360;9.650;2023-06-24T09:14:51;8.13;;;7.43;;
46377;SDS011;32083;47.360;9.650;2023-06-24T09:17:18;8.95;;;8.05;;
46377;SDS011;32083;47.360;9.650;2023-06-24T09:19:47;7.90;;;6.78;;
46377;SDS011;32083;47.360;9.650;2023-06-24T09:22:14;8.57;;;7.88;;
46377;SDS011;32083;47.360;9.650;2023-06-24T09:24:47;7.93;;;6.85;;
46377;SDS011;32083;47.360;9.650;2023-06-24T09:27:17;13.20;;;9.52;;
46377;SDS011;32083;47.360;9.650;2023-06-24T09:29:47;8.88;;;8.07;;
46377;SDS011;32083;47.360;9.650;2023-06-24T09:32:13;8.50;;;7.70;;
46377;SDS011;32083;47.360;9.650;2023-06-24T09:34:40;8.93;;;8.02;;
46377;SDS011;32083;47.360;9.650;2023-06-24T09:37:06;9.10;;;8.02;;
46377;SDS011;32083;47.360;9.650;2023-06-24T09:39:36;9.50;;;8.57;;
46377;SDS011;32083;47.360;9.650;2023-06-24T09:42:04;9.20;;;8.27;;
46377;SDS011;32083;47.360;9.650;2023-06-24T09:44:34;8.63;;;7.82;;
46377;SDS011;32083;47.360;9.650;2023-06-24T09:47:00;9.55;;;7.65;;
46377;SDS011;32083;47.360;9.650;2023-06-24T09:49:26;9.48;;;8.57;;
46377;SDS011;32083;47.360;9.650;2023-06-24T09:51:56;9.10;;;8.20;;
46377;SDS011;32083;47.360;9.650;2023-06-24T09:54:24;9.07;;;8.27;;
46377;SDS011;32083;47.360;9.650;2023-06-24T09:56:55;8.98;;;8.05;;
46377;SDS011;32083;47.360;9.650;2023-06-24T09:59:26;10.05;;;9.05;;
46377;SDS011;32083;47.360;9.650;2023-06-24T10:01:55;9.90;;;9.00;;
46377;SDS011;32083;47.360;9.650;2023-06-24T10:04:22;10.32;;;9.27;;
46377;SDS011;32083;47.360;9.650;2023-06-24T10:06:50;8.88;;;8.05;;
46377;SDS011;32083;47.360;9.650;2023-06-24T10:09:16;8.13;;;7.32;;
46377;SDS011;32083;47.360;9.650;2023-06-24T10:11:44;7.22;;;6.63;;
46377;SDS011;32083;47.360;9.650;2023-06-24T10:14:11;8.30;;;6.90;;
46377;SDS011;32083;47.360;9.650;2023-06-24T10:16:37;9.20;;;7.95;;
46377;SDS011;32083;47.360;9.650;2023-06-24T10:19:04;5.38;;;4.90;;
46377;SDS011;32083;47.360;9.650;2023-06-24T10:24:38;3.95;;;3.65;;
46377;SDS011;32083;47.360;9.650;2023-06-24T10:29:37;6.88;;;4.07;;
46377;SDS011;32083;47.360;9.650;2023-06-24T10:32:07;5.00;;;4.10;;
46377;SDS011;32083;47.360;9.650;2023-06-24T10:37:03;5.57;;;4.00;;
46377;SDS011;32083;47.360;9.650;2023-06-24T10:42:28;5.22;;;4.10;;
46377;SDS011;32083;47.360;9.650;2023-06-24T10:44:59;5.10;;;4.60;;
46377;SDS011;32083;47.360;9.650;2023-06-24T10:47:34;4.50;;;3.88;;
46377;SDS011;32083;47.360;9.650;2023-06-24T10:50:02;5.72;;;3.97;;
46377;SDS011;32083;47.360;9.650;2023-06-24T10:52:28;3.72;;;3.35;;
46377;SDS011;32083;47.360;9.650;2023-06-24T10:54:56;4.95;;;3.30;;
46377;SDS011;32083;47.360;9.650;2023-06-24T10:57:23;3.72;;;3.30;;
46377;SDS011;32083;47.360;9.650;2023-06-24T10:59:51;4.25;;;3.08;;
46377;SDS011;32083;47.360;9.650;2023-06-24T11:02:22;4.50;;;3.50;;
46377;SDS011;32083;47.360;9.650;2023-06-24T11:04:50;3.30;;;3.00;;
46377;SDS011;32083;47.360;9.650;2023-06-24T11:07:21;4.40;;;3.00;;
46377;SDS011;32083;47.360;9.650;2023-06-24T11:09:48;4.35;;;3.58;;
46377;SDS011;32083;47.360;9.650;2023-06-24T11:12:19;3.58;;;3.28;;
46377;SDS011;32083;47.360;9.650;2023-06-24T11:14:50;4.05;;;2.80;;
46377;SDS011;32083;47.360;9.650;2023-06-24T11:17:16;3.60;;;3.30;;
46377;SDS011;32083;47.360;9.650;2023-06-24T11:19:44;4.13;;;3.75;;
46377;SDS011;32083;47.360;9.650;2023-06-24T11:22:10;3.35;;;3.05;;
46377;SDS011;32083;47.360;9.650;2023-06-24T11:24:36;5.60;;;3.85;;
46377;SDS011;32083;47.360;9.650;2023-06-24T11:27:04;3.60;;;3.30;;
46377;SDS011;32083;47.360;9.650;2023-06-24T11:29:31;4.45;;;3.08;;
46377;SDS011;32083;47.360;9.650;2023-06-24T11:31:58;4.18;;;3.63;;
46377;SDS011;32083;47.360;9.650;2023-06-24T11:34:25;3.60;;;3.15;;
46377;SDS011;32083;47.360;9.650;2023-06-24T11:36:51;3.65;;;3.35;;
46377;SDS011;32083;47.360;9.650;2023-06-24T11:39:21;6.15;;;3.58;;
46377;SDS011;32083;47.360;9.650;2023-06-24T11:41:47;3.45;;;3.15;;
46377;SDS011;32083;47.360;9.650;2023-06-24T11:44:14;3.92;;;3.42;;
46377;SDS011;32083;47.360;9.650;2023-06-24T11:46:40;3.92;;;3.33;;
46377;SDS011;32083;47.360;9.650;2023-06-24T11:49:06;4.20;;;3.80;;
46377;SDS011;32083;47.360;9.650;2023-06-24T11:51:33;3.63;;;3.33;;
46377;SDS011;32083;47.360;9.650;2023-06-24T11:54:01;3.53;;;3.20;;
46377;SDS011;32083;47.360;9.650;2023-06-24T11:59:03;3.65;;;3.33;;
46377;SDS011;32083;47.360;9.650;2023-06-24T12:01:42;4.78;;;3.75;;
46377;SDS011;32083;47.360;9.650;2023-06-24T12:04:12;5.60;;;3.53;;
46377;SDS011;32083;47.360;9.650;2023-06-24T12:06:42;4.15;;;3.63;;
46377;SDS011;32083;47.360;9.650;2023-06-24T12:09:08;3.58;;;3.28;;
46377;SDS011;32083;47.360;9.650;2023-06-24T12:11:35;4.10;;;3.67;;
46377;SDS011;32083;47.360;9.650;2023-06-24T12:14:01;4.07;;;3.40;;
46377;SDS011;32083;47.360;9.650;2023-06-24T12:16:28;4.55;;;3.50;;
46377;SDS011;32083;47.360;9.650;2023-06-24T12:18:54;4.03;;;3.72;;
46377;SDS011;32083;47.360;9.650;2023-06-24T12:21:21;3.90;;;3.47;;
46377;SDS011;32083;47.360;9.650;2023-06-24T12:23:47;4.00;;;3.70;;
46377;SDS011;32083;47.360;9.650;2023-06-24T12:26:13;5.53;;;3.72;;
46377;SDS011;32083;47.360;9.650;2023-06-24T12:28:39;3.70;;;3.38;;
46377;SDS011;32083;47.360;9.650;2023-06-24T12:31:05;4.97;;;4.20;;
46377;SDS011;32083;47.360;9.650;2023-06-24T12:33:31;3.22;;;2.90;;
46377;SDS011;32083;47.360;9.650;2023-06-24T12:35:58;4.03;;;3.63;;
46377;SDS011;32083;47.360;9.650;2023-06-24T12:38:24;4.25;;;3.72;;
46377;SDS011;32083;47.360;9.650;2023-06-24T12:40:50;4.22;;;3.83;;
46377;SDS011;32083;47.360;9.650;2023-06-24T12:43:16;4.95;;;3.17;;
46377;SDS011;32083;47.360;9.650;2023-06-24T12:45:42;4.82;;;3.40;;
46377;SDS011;32083;47.360;9.650;2023-06-24T12:48:12;3.58;;;3.28;;
46377;SDS011;32083;47.360;9.650;2023-06-24T12:50:39;4.20;;;2.92;;
46377;SDS011;32083;47.360;9.650;2023-06-24T12:53:05;3.38;;;2.95;;
46377;SDS011;32083;47.360;9.650;2023-06-24T12:55:31;4.50;;;3.47;;
46377;SDS011;32083;47.360;9.650;2023-06-24T12:57:57;3.97;;;3.58;;
46377;SDS011;32083;47.360;9.650;2023-06-24T13:00:23;3.53;;;3.22;;
46377;SDS011;32083;47.360;9.650;2023-06-24T13:02:49;4.53;;;2.95;;
46377;SDS011;32083;47.360;9.650;2023-06-24T13:05:16;3.72;;;3.33;;
46377;SDS011;32083;47.360;9.650;2023-06-24T13:07:43;3.50;;;3.20;;
46377;SDS011;32083;47.360;9.650;2023-06-24T13:10:09;4.18;;;3.78;;
46377;SDS011;32083;47.360;9.650;2023-06-24T13:12:35;4.35;;;3.35;;
46377;SDS011;32083;47.360;9.650;2023-06-24T13:15:03;5.18;;;3.50;;
46377;SDS011;32083;47.360;9.650;2023-06-24T13:17:30;4.95;;;3.53;;
46377;SDS011;32083;47.360;9.650;2023-06-24T13:19:56;3.70;;;3.08;;
46377;SDS011;32083;47.360;9.650;2023-06-24T13:22:22;3.85;;;3.28;;
46377;SDS011;32083;47.360;9.650;2023-06-24T13:24:49;4.47;;;3.45;;
46377;SDS011;32083;47.360;9.650;2023-06-24T13:27:15;4.20;;;3.65;;
46377;SDS011;32083;47.360;9.650;2023-06-24T13:29:41;3.80;;;3.30;;
46377;SDS011;32083;47.360;9.650;2023-06-24T13:32:08;8.52;;;3.58;;
46377;SDS011;32083;47.360;9.650;2023-06-24T13:34:34;3.50;;;3.20;;
46377;SDS011;32083;47.360;9.650;2023-06-24T13:37:00;3.53;;;3.20;;
46377;SDS011;32083;47.360;9.650;2023-06-24T13:39:26;4.28;;;3.58;;
46377;SDS011;32083;47.360;9.650;2023-06-24T13:41:53;4.38;;;3.50;;
46377;SDS011;32083;47.360;9.650;2023-06-24T13:44:19;3.22;;;2.63;;
46377;SDS011;32083;47.360;9.650;2023-06-24T13:46:45;3.70;;;3.40;;
46377;SDS011;32083;47.360;9.650;2023-06-24T13:49:11;3.58;;;3.13;;
46377;SDS011;32083;47.360;9.650;2023-06-24T13:51:37;4.97;;;3.17;;
46377;SDS011;32083;47.360;9.650;2023-06-24T13:54:04;4.60;;;3.50;;
46377;SDS011;32083;47.360;9.650;2023-06-24T13:56:30;4.47;;;3.60;;
46377;SDS011;32083;47.360;9.650;2023-06-24T13:58:56;3.83;;;3.50;;
46377;SDS011;32083;47.360;9.650;2023-06-24T14:01:22;3.25;;;2.95;;
46377;SDS011;32083;47.360;9.650;2023-06-24T14:03:48;4.57;;;2.92;;
46377;SDS011;32083;47.360;9.650;2023-06-24T14:06:16;3.42;;;3.13;;
46377;SDS011;32083;47.360;9.650;2023-06-24T14:08:43;3.95;;;3.40;;
46377;SDS011;32083;47.360;9.650;2023-06-24T14:11:09;4.15;;;3.15;;
46377;SDS011;32083;47.360;9.650;2023-06-24T14:13:35;4.22;;;3.45;;
46377;SDS011;32083;47.360;9.650;2023-06-24T14:16:01;3.38;;;3.10;;
46377;SDS011;32083;47.360;9.650;2023-06-24T14:18:28;3.50;;;3.20;;
46377;SDS011;32083;47.360;9.650;2023-06-24T14:21:01;4.70;;;3.38;;
46377;SDS011;32083;47.360;9.650;2023-06-24T14:23:28;3.47;;;3.10;;
46377;SDS011;32083;47.360;9.650;2023-06-24T14:25:55;4.43;;;3.10;;
46377;SDS011;32083;47.360;9.650;2023-06-24T14:28:21;4.28;;;3.42;;
46377;SDS011;32083;47.360;9.650;2023-06-24T14:30:48;4.03;;;3.42;;
46377;SDS011;32083;47.360;9.650;2023-06-24T14:33:14;4.68;;;3.50;;
46377;SDS011;32083;47.360;9.650;2023-06-24T14:35:40;4.80;;;3.90;;
46377;SDS011;32083;47.360;9.650;2023-06-24T14:38:06;5.40;;;3.75;;
46377;SDS011;32083;47.360;9.650;2023-06-24T14:40:32;3.42;;;3.13;;
46377;SDS011;32083;47.360;9.650;2023-06-24T14:42:59;3.60;;;3.13;;
46377;SDS011;32083;47.360;9.650;2023-06-24T14:45:25;3.60;;;3.30;;
46377;SDS011;32083;47.360;9.650;2023-06-24T14:47:51;3.60;;;3.30;;
46377;SDS011;32083;47.360;9.650;2023-06-24T14:50:17;3.97;;;3.58;;
46377;SDS011;32083;47.360;9.650;2023-06-24T14:52:43;3.60;;;3.10;;
46377;SDS011;32083;47.360;9.650;2023-06-24T14:55:09;3.58;;;3.28;;
46377;SDS011;32083;47.360;9.650;2023-06-24T14:57:36;4.28;;;3.65;;
46377;SDS011;32083;47.360;9.650;2023-06-24T15:00:04;3.83;;;3.25;;
46377;SDS011;32083;47.360;9.650;2023-06-24T15:02:34;3.95;;;3.00;;
46377;SDS011;32083;47.360;9.650;2023-06-24T15:05:01;3.50;;;3.20;;
46377;SDS011;32083;47.360;9.650;2023-06-24T15:07:27;3.55;;;3.25;;
46377;SDS011;32083;47.360;9.650;2023-06-24T15:09:53;3.30;;;3.00;;
46377;SDS011;32083;47.360;9.650;2023-06-24T15:12:19;3.50;;;3.20;;
46377;SDS011;32083;47.360;9.650;2023-06-24T15:14:45;4.15;;;2.85;;
46377;SDS011;32083;47.360;9.650;2023-06-24T15:17:13;3.50;;;3.20;;
46377;SDS011;32083;47.360;9.650;2023-06-24T15:19:39;3.83;;;3.50;;
46377;SDS011;32083;47.360;9.650;2023-06-24T15:22:05;4.32;;;3.63;;
46377;SDS011;32083;47.360;9.650;2023-06-24T15:24:31;3.22;;;2.92;;
46377;SDS011;32083;47.360;9.650;2023-06-24T15:26:58;4.95;;;3.80;;
46377;SDS011;32083;47.360;9.650;2023-06-24T15:29:25;3.63;;;3.30;;
46377;SDS011;32083;47.360;9.650;2023-06-24T15:31:51;5.40;;;3.70;;
46377;SDS011;32083;47.360;9.650;2023-06-24T15:34:17;3.65;;;3.28;;
46377;SDS011;32083;47.360;9.650;2023-06-24T15:36:43;4.75;;;3.15;;
46377;SDS011;32083;47.360;9.650;2023-06-24T15:39:09;4.15;;;3.85;;
46377;SDS011;32083;47.360;9.650;2023-06-24T15:41:38;3.78;;;2.95;;
46377;SDS011;32083;47.360;9.650;2023-06-24T15:44:04;4.30;;;3.50;;
46377;SDS011;32083;47.360;9.650;2023-06-24T15:46:30;5.13;;;3.78;;
46377;SDS011;32083;47.360;9.650;2023-06-24T15:48:56;3.75;;;3.10;;
46377;SDS011;32083;47.360;9.650;2023-06-24T15:51:22;3.97;;;3.53;;
46377;SDS011;32083;47.360;9.650;2023-06-24T15:53:48;3.83;;;3.42;;
46377;SDS011;32083;47.360;9.650;2023-06-24T15:56:14;4.60;;;3.95;;
46377;SDS011;32083;47.360;9.650;2023-06-24T15:58:40;3.63;;;3.33;;
46377;SDS011;32083;47.360;9.650;2023-06-24T16:01:06;3.92;;;3.47;;
46377;SDS011;32083;47.360;9.650;2023-06-24T16:03:32;3.75;;;3.35;;
46377;SDS011;32083;47.360;9.650;2023-06-24T16:05:58;3.22;;;2.92;;
46377;SDS011;32083;47.360;9.650;2023-06-24T16:08:24;3.80;;;3.40;;
46377;SDS011;32083;47.360;9.650;2023-06-24T16:10:51;3.58;;;3.28;;
46377;SDS011;32083;47.360;9.650;2023-06-24T16:13:17;4.80;;;4.22;;
46377;SDS011;32083;47.360;9.650;2023-06-24T16:15:43;4.03;;;3.50;;
46377;SDS011;32083;47.360;9.650;2023-06-24T16:18:09;4.13;;;3.40;;
46377;SDS011;32083;47.360;9.650;2023-06-24T16:20:35;3.55;;;3.25;;
46377;SDS011;32083;47.360;9.650;2023-06-24T16:23:01;3.25;;;2.95;;
46377;SDS011;32083;47.360;9.650;2023-06-24T16:25:29;3.78;;;3.15;;
46377;SDS011;32083;47.360;9.650;2023-06-24T16:27:57;4.75;;;3.75;;
46377;SDS011;32083;47.360;9.650;2023-06-24T16:30:23;5.28;;;3.22;;
46377;SDS011;32083;47.360;9.650;2023-06-24T16:32:49;4.18;;;3.58;;
46377;SDS011;32083;47.360;9.650;2023-06-24T16:35:15;4.53;;;3.33;;
46377;SDS011;32083;47.360;9.650;2023-06-24T16:37:41;3.42;;;3.13;;
46377;SDS011;32083;47.360;9.650;2023-06-24T16:40:08;4.45;;;3.55;;
46377;SDS011;32083;47.360;9.650;2023-06-24T16:42:34;4.82;;;3.33;;
46377;SDS011;32083;47.360;9.650;2023-06-24T16:45:00;3.35;;;3.05;;
46377;SDS011;32083;47.360;9.650;2023-06-24T16:47:26;4.00;;;3.60;;
46377;SDS011;32083;47.360;9.650;2023-06-24T16:49:52;3.65;;;3.35;;
46377;SDS011;32083;47.360;9.650;2023-06-24T16:52:19;3.70;;;3.20;;
46377;SDS011;32083;47.360;9.650;2023-06-24T16:54:45;3.97;;;3.58;;
46377;SDS011;32083;47.360;9.650;2023-06-24T16:57:11;3.70;;;3.40;;
46377;SDS011;32083;47.360;9.650;2023-06-24T16:59:37;5.78;;;3.55;;
46377;SDS011;32083;47.360;9.650;2023-06-24T17:02:03;4.50;;;3.40;;
46377;SDS011;32083;47.360;9.650;2023-06-24T17:04:29;4.40;;;3.67;;
46377;SDS011;32083;47.360;9.650;2023-06-24T17:06:55;3.72;;;3.42;;
46377;SDS011;32083;47.360;9.650;2023-06-24T17:09:21;4.10;;;3.70;;
46377;SDS011;32083;47.360;9.650;2023-06-24T17:11:47;4.32;;;3.92;;
46377;SDS011;32083;47.360;9.650;2023-06-24T17:14:13;4.70;;;3.70;;
46377;SDS011;32083;47.360;9.650;2023-06-24T17:16:39;5.15;;;3.65;;
46377;SDS011;32083;47.360;9.650;2023-06-24T17:19:05;4.82;;;4.25;;
46377;SDS011;32083;47.360;9.650;2023-06-24T17:21:31;4.28;;;3.30;;
46377;SDS011;32083;47.360;9.650;2023-06-24T17:23:57;3.88;;;3.22;;
46377;SDS011;32083;47.360;9.650;2023-06-24T17:26:23;4.20;;;3.55;;
46377;SDS011;32083;47.360;9.650;2023-06-24T17:28:50;4.10;;;3.67;;
46377;SDS011;32083;47.360;9.650;2023-06-24T17:31:16;4.15;;;3.75;;
46377;SDS011;32083;47.360;9.650;2023-06-24T17:33:43;4.55;;;3.90;;
46377;SDS011;32083;47.360;9.650;2023-06-24T17:36:09;4.82;;;3.80;;
46377;SDS011;32083;47.360;9.650;2023-06-24T17:38:35;4.05;;;3.70;;
46377;SDS011;32083;47.360;9.650;2023-06-24T17:41:01;4.00;;;3.60;;
46377;SDS011;32083;47.360;9.650;2023-06-24T17:43:27;6.40;;;3.55;;
46377;SDS011;32083;47.360;9.650;2023-06-24T17:45:53;6.28;;;3.92;;
46377;SDS011;32083;47.360;9.650;2023-06-24T17:48:19;5.63;;;3.88;;
46377;SDS011;32083;47.360;9.650;2023-06-24T17:50:45;4.80;;;3.70;;
46377;SDS011;32083;47.360;9.650;2023-06-24T17:53:11;3.75;;;3.40;;
46377;SDS011;32083;47.360;9.650;2023-06-24T17:55:37;4.10;;;3.70;;
46377;SDS011;32083;47.360;9.650;2023-06-24T17:58:04;4.53;;;3.70;;
46377;SDS011;32083;47.360;9.650;2023-06-24T18:00:30;3.20;;;2.90;;
46377;SDS011;32083;47.360;9.650;2023-06-24T18:03:02;3.40;;;3.10;;
46377;SDS011;32083;47.360;9.650;2023-06-24T18:05:28;5.63;;;3.53;;
46377;SDS011;32083;47.360;9.650;2023-06-24T18:07:54;6.63;;;3.22;;
46377;SDS011;32083;47.360;9.650;2023-06-24T18:10:20;3.95;;;3.55;;
46377;SDS011;32083;47.360;9.650;2023-06-24T18:12:46;3.83;;;3.10;;
46377;SDS011;32083;47.360;9.650;2023-06-24T18:15:11;4.07;;;3.67;;
46377;SDS011;32083;47.360;9.650;2023-06-24T18:17:38;4.55;;;3.70;;
46377;SDS011;32083;47.360;9.650;2023-06-24T18:20:04;5.13;;;3.63;;
46377;SDS011;32083;47.360;9.650;2023-06-24T18:22:30;3.55;;;3.17;;
46377;SDS011;32083;47.360;9.650;2023-06-24T18:24:56;5.07;;;3.20;;
46377;SDS011;32083;47.360;9.650;2023-06-24T18:27:22;5.97;;;3.42;;
46377;SDS011;32083;47.360;9.650;2023-06-24T18:29:48;3.28;;;2.75;;
46377;SDS011;32083;47.360;9.650;2023-06-24T18:32:14;4.07;;;3.67;;
46377;SDS011;32083;47.360;9.650;2023-06-24T18:34:40;4.38;;;3.20;;
46377;SDS011;32083;47.360;9.650;2023-06-24T18:37:05;5.43;;;3.88;;
46377;SDS011;32083;47.360;9.650;2023-06-24T18:39:31;3.80;;;3.38;;
46377;SDS011;32083;47.360;9.650;2023-06-24T18:41:59;4.97;;;3.70;;
46377;SDS011;32083;47.360;9.650;2023-06-24T18:44:25;3.75;;;3.38;;
46377;SDS011;32083;47.360;9.650;2023-06-24T18:46:50;3.90;;;3.60;;
46377;SDS011;32083;47.360;9.650;2023-06-24T18:49:16;5.82;;;3.38;;
46377;SDS011;32083;47.360;9.650;2023-06-24T18:51:42;4.63;;;3.80;;
46377;SDS011;32083;47.360;9.650;2023-06-24T18:54:08;3.60;;;3.30;;